Time;durP1;ratioP1;P1;durP2;ratioP2;P2;SDS_P1;SDS_P2;PMS_P1;PMS_P2;Temp;Humidity;BMP_temperature;BMP_pressure;BME280_temperature;BME280_humidity;BME280_pressure;Samples;Min_cycle;Max_cycle;Signal;HPM_P1;HPM_P2
2021/06/14 00:01:06;;;;;;;5.22;2.15;;;;;;;16.44;51.60;97427.69;4975265;28;20096;-77
2021/06/14 00:03:34;;;;;;;2.78;2.15;;;;;;;16.43;52.00;97421.59;4975976;28;20050;-77
2021/06/14 00:06:02;;;;;;;7.90;2.55;;;;;;;16.43;52.39;97423.44;4975407;28;20531;-77
2021/06/14 00:08:30;;;;;;;4.22;2.17;;;;;;;16.42;51.63;97429.69;4976266;28;20084;-77
2021/06/14 00:11:00;;;;;;;3.22;2.40;;;;;;;16.39;51.48;97430.91;4978933;28;20077;-78
2021/06/14 00:13:29;;;;;;;5.85;2.53;;;;;;;16.35;51.16;97428.88;4977802;28;20409;-77
2021/06/14 00:15:57;;;;;;;3.65;2.22;;;;;;;16.32;51.64;97429.28;4977760;28;20043;-78
2021/06/14 00:18:24;;;;;;;4.90;2.75;;;;;;;16.31;51.50;97428.47;4977685;28;20050;-77
2021/06/14 00:20:55;;;;;;;3.20;2.25;;;;;;;16.27;51.83;97422.78;4977428;28;20109;-77
2021/06/14 00:23:24;;;;;;;4.40;2.90;;;;;;;16.26;52.02;97415.06;4977278;28;20062;-76
2021/06/14 00:25:52;;;;;;;4.20;2.40;;;;;;;16.23;52.12;97410.22;4976915;28;20046;-78
2021/06/14 00:28:21;;;;;;;5.13;2.70;;;;;;;16.20;51.96;97410.59;4977180;28;20063;-77
2021/06/14 00:30:50;;;;;;;4.70;2.20;;;;;;;16.18;52.70;97417.88;4977311;28;20054;-77
2021/06/14 00:33:22;;;;;;;3.67;1.98;;;;;;;16.17;53.33;97411.81;4977074;28;20121;-77
2021/06/14 00:35:49;;;;;;;2.88;2.08;;;;;;;16.16;52.18;97410.19;4977717;28;20054;-77
2021/06/14 00:38:18;;;;;;;4.00;2.65;;;;;;;16.17;52.01;97408.38;4976905;28;20070;-77
2021/06/14 00:40:46;;;;;;;4.97;2.63;;;;;;;16.12;51.80;97408.16;4977028;28;20051;-77
2021/06/14 00:43:15;;;;;;;4.43;2.40;;;;;;;16.06;51.85;97415.00;4976525;28;20528;-77
2021/06/14 00:45:46;;;;;;;2.97;1.92;;;;;;;16.00;52.58;97400.78;4977049;28;20077;-77
2021/06/14 00:48:14;;;;;;;3.90;2.45;;;;;;;15.99;51.83;97399.19;4977111;28;20138;-77
2021/06/14 00:50:45;;;;;;;3.53;2.28;;;;;;;15.94;53.49;97401.59;4977007;28;20043;-77
2021/06/14 00:53:17;;;;;;;2.72;2.05;;;;;;;15.95;54.14;97399.78;4976328;28;20051;-77
2021/06/14 00:55:46;;;;;;;5.85;1.92;;;;;;;15.95;53.71;97408.47;4976947;28;20063;-77
2021/06/14 00:58:14;;;;;;;3.33;2.30;;;;;;;15.95;53.63;97392.69;4976615;28;20058;-77
2021/06/14 01:00:43;;;;;;;5.10;2.40;;;;;;;15.96;53.97;97390.88;4976650;28;20089;-77
2021/06/14 01:03:12;;;;;;;3.10;2.58;;;;;;;15.96;52.97;97396.97;4976668;28;20054;-77
2021/06/14 01:05:43;;;;;;;3.67;2.50;;;;;;;15.92;53.04;97390.47;4976442;28;20398;-78
2021/06/14 01:08:12;;;;;;;4.43;2.75;;;;;;;15.90;53.42;97379.31;4976705;28;20068;-77
2021/06/14 01:10:41;;;;;;;4.00;2.08;;;;;;;15.85;53.13;97377.28;4976648;28;20055;-77
2021/06/14 01:13:20;;;;;;;7.07;2.42;;;;;;;15.86;54.42;97385.97;4976218;28;20058;-77
2021/06/14 01:15:59;;;;;;;3.35;2.10;;;;;;;15.86;53.81;97383.34;4976360;28;20046;-77
2021/06/14 01:18:33;;;;;;;2.80;2.03;;;;;;;15.85;54.72;97377.28;4976743;28;20074;-78
2021/06/14 01:21:09;;;;;;;3.03;2.10;;;;;;;15.88;55.25;97378.69;4975585;28;20531;-77
2021/06/14 01:24:03;;;;;;;4.03;2.53;;;;;;;15.93;55.29;97373.66;4975989;28;20058;-77
2021/06/14 01:26:38;;;;;;;4.75;2.63;;;;;;;15.96;55.46;97362.75;4975801;28;20066;-77
2021/06/14 01:29:07;;;;;;;2.85;1.95;;;;;;;15.95;54.78;97366.38;4976179;28;20054;-77
2021/06/14 01:31:38;;;;;;;3.80;2.58;;;;;;;15.98;54.01;97359.91;4976471;28;20055;-77
2021/06/14 01:34:08;;;;;;;4.30;2.30;;;;;;;15.97;54.42;97358.28;4975881;28;20054;-77
2021/06/14 01:39:06;;;;;;;4.95;2.60;;;;;;;16.01;52.51;97367.44;5037280;23;20050;-76
2021/06/14 01:41:35;;;;;;;3.50;2.00;;;;;;;16.01;53.79;97360.34;5019385;28;20070;-78
2021/06/14 01:44:04;;;;;;;2.88;2.10;;;;;;;16.05;52.61;97358.94;5018347;28;20042;-76
2021/06/14 01:46:37;;;;;;;6.32;2.15;;;;;;;16.06;52.56;97365.81;5018598;28;20045;-77
2021/06/14 01:49:07;;;;;;;3.63;2.17;;;;;;;16.06;52.05;97355.28;4999518;28;20061;-76
2021/06/14 01:51:37;;;;;;;2.85;2.10;;;;;;;16.06;52.27;97357.91;4999389;28;20054;-78
2021/06/14 01:54:06;;;;;;;2.80;2.10;;;;;;;16.05;52.33;97347.59;4999465;28;20047;-77
2021/06/14 01:56:37;;;;;;;4.70;1.98;;;;;;;16.05;53.06;97344.97;5000629;28;20100;-76
2021/06/14 01:59:06;;;;;;;4.47;2.20;;;;;;;16.08;53.33;97354.28;4999802;28;20054;-76
2021/06/14 02:01:38;;;;;;;5.82;2.50;;;;;;;16.10;52.98;97349.63;4999990;28;20050;-75
2021/06/14 02:04:06;;;;;;;3.45;2.15;;;;;;;16.13;52.42;97354.50;5000376;28;20050;-75
2021/06/14 02:06:41;;;;;;;2.63;2.05;;;;;;;16.16;52.79;97354.91;5000342;28;20077;-75
2021/06/14 02:09:11;;;;;;;5.88;2.40;;;;;;;16.18;52.01;97347.63;5001012;28;20050;-75
2021/06/14 02:11:43;;;;;;;4.03;2.53;;;;;;;16.20;52.76;97352.69;5000653;28;20061;-77
2021/06/14 02:14:13;;;;;;;2.70;1.90;;;;;;;16.22;52.84;97345.41;5000796;28;20050;-77
2021/06/14 02:16:42;;;;;;;6.55;2.42;;;;;;;16.22;53.16;97345.41;4999947;28;20085;-76
2021/06/14 02:19:12;;;;;;;3.85;2.38;;;;;;;16.24;52.93;97344.19;5000390;28;20070;-78
2021/06/14 02:21:41;;;;;;;2.60;2.10;;;;;;;16.25;52.59;97334.50;4999604;28;20057;-78
2021/06/14 02:24:09;;;;;;;5.88;2.22;;;;;;;16.24;52.40;97338.91;4998570;28;20054;-77
2021/06/14 02:26:37;;;;;;;6.03;2.33;;;;;;;16.23;52.38;97344.41;4999085;28;20504;-76
2021/06/14 02:29:05;;;;;;;3.05;2.53;;;;;;;16.20;53.06;97337.72;4999567;28;20054;-78
2021/06/14 02:31:33;;;;;;;4.22;2.53;;;;;;;16.19;53.24;97336.09;4999102;28;20101;-77
2021/06/14 02:34:04;;;;;;;3.13;2.55;;;;;;;16.18;53.90;97334.47;4998361;28;20092;-78
2021/06/14 02:36:33;;;;;;;4.07;2.53;;;;;;;16.18;54.16;97341.53;4999337;28;20047;-77
2021/06/14 02:39:08;;;;;;;3.28;2.58;;;;;;;16.19;54.03;97337.91;4999198;28;20047;-76
2021/06/14 02:41:36;;;;;;;3.70;2.30;;;;;;;16.20;54.04;97332.47;4998565;28;20060;-77
2021/06/14 02:44:05;;;;;;;9.15;2.70;;;;;;;16.21;52.31;97343.78;4998756;28;20066;-77
2021/06/14 02:46:35;;;;;;;5.95;2.67;;;;;;;16.20;52.12;97342.16;4999422;28;20053;-77
2021/06/14 02:49:05;;;;;;;3.65;2.22;;;;;;;16.17;52.96;97343.38;4999198;28;20057;-76
2021/06/14 02:51:34;;;;;;;3.83;2.47;;;;;;;16.17;52.89;97339.94;4998561;28;20416;-77
2021/06/14 02:54:06;;;;;;;6.80;3.00;;;;;;;16.18;52.77;97349.44;4997750;28;20535;-77
2021/06/14 02:56:35;;;;;;;7.40;2.67;;;;;;;16.17;52.12;97347.81;4998265;28;20042;-77
2021/06/14 02:59:06;;;;;;;5.32;2.58;;;;;;;16.16;52.06;97344.38;4998111;28;20057;-78
2021/06/14 03:01:35;;;;;;;5.03;2.53;;;;;;;16.16;52.13;97341.75;4997785;28;20054;-77
2021/06/14 03:04:06;;;;;;;6.15;2.75;;;;;;;16.12;52.21;97347.63;4997985;28;20058;-77
2021/06/14 03:06:34;;;;;;;5.72;3.20;;;;;;;16.09;52.09;97345.38;4997801;28;20054;-77
2021/06/14 03:09:05;;;;;;;5.45;2.40;;;;;;;16.06;51.87;97342.13;4997964;28;20145;-77
2021/06/14 03:11:34;;;;;;;2.37;2.10;;;;;;;16.05;52.10;97345.78;4997074;28;20057;-76
2021/06/14 03:14:03;;;;;;;5.47;2.83;;;;;;;16.04;52.68;97344.13;4997093;28;20054;-79
2021/06/14 03:16:31;;;;;;;4.57;2.40;;;;;;;16.01;52.38;97335.84;4996957;28;20508;-76
2021/06/14 03:19:02;;;;;;;3.85;2.40;;;;;;;15.99;52.21;97343.13;4997175;28;20089;-78
2021/06/14 03:21:33;;;;;;;5.57;2.88;;;;;;;15.98;52.68;97342.31;4996270;28;20448;-77
2021/06/14 03:24:02;;;;;;;4.53;2.75;;;;;;;15.98;52.37;97344.94;4995855;28;20354;-79
2021/06/14 03:26:34;;;;;;;5.18;2.95;;;;;;;16.00;52.42;97342.09;4995361;28;20042;-76
2021/06/14 03:29:02;;;;;;;9.40;3.17;;;;;;;16.00;51.99;97347.38;4996864;28;20050;-78
2021/06/14 03:31:31;;;;;;;5.63;3.20;;;;;;;15.99;52.36;97348.38;4997827;28;20054;-78
2021/06/14 03:34:00;;;;;;;5.65;2.60;;;;;;;15.96;52.10;97346.97;4997725;28;20053;-77
2021/06/14 03:36:31;;;;;;;4.80;2.17;;;;;;;15.95;52.10;97344.53;4997338;28;20077;-78
2021/06/14 03:39:00;;;;;;;3.35;2.55;;;;;;;15.93;52.14;97341.28;4997222;28;20058;-77
2021/06/14 03:41:28;;;;;;;5.40;3.05;;;;;;;15.89;52.28;97335.59;4997019;28;20047;-76
2021/06/14 03:43:56;;;;;;;3.35;2.40;;;;;;;15.88;52.37;97344.50;4997059;28;20054;-77
2021/06/14 03:46:23;;;;;;;3.88;2.50;;;;;;;15.85;52.66;97344.88;4996544;28;20057;-76
2021/06/14 03:48:51;;;;;;;3.65;2.58;;;;;;;15.82;52.37;97340.81;4996853;28;20054;-77
2021/06/14 03:51:18;;;;;;;6.88;3.08;;;;;;;15.79;52.45;97346.50;4996947;28;20057;-76
2021/06/14 03:53:57;;;;;;;8.18;2.65;;;;;;;15.79;52.37;97353.56;4996610;28;20054;-77
2021/06/14 03:56:26;;;;;;;4.43;2.83;;;;;;;15.77;52.29;97347.69;4996998;28;20050;-77
2021/06/14 03:58:54;;;;;;;4.63;2.33;;;;;;;15.77;52.43;97347.69;4996275;28;20058;-78
2021/06/14 04:01:22;;;;;;;5.75;2.70;;;;;;;15.75;52.62;97340.00;4996842;28;20058;-78
2021/06/14 04:04:02;;;;;;;3.78;2.40;;;;;;;15.73;53.00;97331.50;4996424;28;20050;-76
2021/06/14 04:06:30;;;;;;;6.70;2.88;;;;;;;15.73;52.63;97338.56;4996478;28;20047;-78
2021/06/14 04:08:59;;;;;;;3.95;2.65;;;;;;;15.71;53.04;97336.13;4995983;28;20047;-78
2021/06/14 04:11:26;;;;;;;7.75;2.72;;;;;;;15.70;52.80;97325.78;4996151;28;20519;-77
2021/06/14 04:13:54;;;;;;;4.30;2.67;;;;;;;15.68;53.07;97333.88;4996386;28;20054;-78
2021/06/14 04:16:21;;;;;;;8.27;2.47;;;;;;;15.65;53.23;97332.44;4996468;28;20058;-78
2021/06/14 04:18:50;;;;;;;8.13;3.30;;;;;;;15.65;53.13;97335.09;4995419;28;20073;-78
2021/06/14 04:21:18;;;;;;;6.20;3.30;;;;;;;15.65;52.86;97329.81;4996487;28;20046;-78
2021/06/14 04:23:46;;;;;;;5.40;3.42;;;;;;;15.63;53.05;97325.75;4995247;28;20109;-78
2021/06/14 04:26:15;;;;;;;7.30;2.80;;;;;;;15.64;54.17;97322.13;4996219;28;20050;-78
2021/06/14 04:28:42;;;;;;;5.55;2.60;;;;;;;15.66;53.57;97323.53;4995922;28;20058;-76
2021/06/14 04:31:10;;;;;;;8.57;2.53;;;;;;;15.70;52.97;97320.50;4995950;28;20061;-78
2021/06/14 04:33:38;;;;;;;10.82;3.35;;;;;;;15.73;53.25;97320.16;4995490;28;20055;-78
2021/06/14 04:36:06;;;;;;;5.15;2.78;;;;;;;15.76;53.52;97320.56;4995377;28;20057;-78
2021/06/14 04:38:34;;;;;;;5.28;3.10;;;;;;;15.79;53.17;97322.00;4996564;28;20496;-78
2021/06/14 04:41:02;;;;;;;8.85;3.28;;;;;;;15.79;52.76;97325.44;4995999;28;20054;-76
2021/06/14 04:43:30;;;;;;;3.20;2.70;;;;;;;15.82;52.77;97321.59;4996950;28;20065;-77
2021/06/14 04:45:58;;;;;;;4.07;2.67;;;;;;;15.84;52.52;97322.22;4996955;28;20146;-79
2021/06/14 04:48:26;;;;;;;4.15;2.95;;;;;;;15.86;52.57;97320.22;4996789;28;20053;-76
2021/06/14 04:50:54;;;;;;;10.20;4.07;;;;;;;15.88;52.85;97318.19;4997016;28;20054;-76
2021/06/14 04:53:21;;;;;;;5.88;3.85;;;;;;;15.90;52.67;97310.13;4996882;28;20096;-80
2021/06/14 04:55:49;;;;;;;6.50;3.33;;;;;;;15.90;53.26;97308.28;4996756;28;20054;-79
2021/06/14 04:58:17;;;;;;;7.05;2.85;;;;;;;15.93;52.92;97310.50;5000058;28;20484;-78
2021/06/14 05:00:45;;;;;;;8.63;3.13;;;;;;;15.96;53.33;97306.66;5000339;28;20050;-80
2021/06/14 05:03:13;;;;;;;3.80;2.58;;;;;;;15.99;53.37;97314.97;4999482;28;20050;-78
2021/06/14 05:05:41;;;;;;;3.55;2.55;;;;;;;16.02;53.59;97314.56;5000540;28;20054;-78
2021/06/14 05:08:08;;;;;;;6.22;2.53;;;;;;;16.08;53.39;97312.19;4999333;28;20057;-75
2021/06/14 05:10:36;;;;;;;7.68;2.70;;;;;;;16.11;53.13;97309.94;4999369;28;20050;-76
2021/06/14 05:13:03;;;;;;;6.22;3.10;;;;;;;16.14;52.73;97311.38;4999053;28;20073;-75
2021/06/14 05:15:31;;;;;;;3.50;2.25;;;;;;;16.17;52.75;97316.25;5000248;28;20058;-76
2021/06/14 05:18:00;;;;;;;4.20;2.40;;;;;;;16.18;52.95;97313.41;5000230;28;20051;-77
2021/06/14 05:20:30;;;;;;;5.88;2.85;;;;;;;16.19;52.70;97315.03;4998841;28;20069;-75
2021/06/14 05:22:58;;;;;;;6.03;2.63;;;;;;;16.22;52.88;97319.06;4999433;28;20468;-77
2021/06/14 05:25:25;;;;;;;5.88;3.20;;;;;;;16.23;51.92;97311.00;5000766;28;20428;-76
2021/06/14 05:27:55;;;;;;;15.82;3.15;;;;;;;16.22;51.72;97303.28;5003273;28;20057;-88
2021/06/14 05:30:24;;;;;;;6.50;2.78;;;;;;;16.20;52.85;97308.78;5002868;28;20058;-79
2021/06/14 05:32:55;;;;;;;4.32;2.47;;;;;;;16.22;52.27;97308.53;5003670;28;20097;-77
2021/06/14 05:35:24;;;;;;;6.68;2.78;;;;;;;16.24;52.10;97309.97;4999224;28;20471;-81
2021/06/14 05:37:52;;;;;;;5.32;2.80;;;;;;;16.27;52.84;97309.59;5001370;28;20045;-81
2021/06/14 05:40:19;;;;;;;5.10;2.58;;;;;;;16.34;52.62;97306.94;5003062;28;20050;-79
2021/06/14 05:42:48;;;;;;;6.72;2.60;;;;;;;16.40;52.05;97305.34;5009148;28;20054;-87
2021/06/14 05:45:16;;;;;;;7.53;2.83;;;;;;;16.44;51.41;97299.47;5012541;28;20049;-84
2021/06/14 05:47:44;;;;;;;6.70;2.53;;;;;;;16.45;51.05;97298.44;5013342;28;20082;-87
2021/06/14 05:50:13;;;;;;;4.32;2.58;;;;;;;16.48;51.57;97298.03;5009840;28;20061;-80
2021/06/14 05:52:42;;;;;;;6.13;2.40;;;;;;;16.52;51.02;97308.19;5010015;28;20046;-85
2021/06/14 05:55:10;;;;;;;5.60;2.17;;;;;;;16.53;50.47;97309.78;5003534;28;20059;-77
2021/06/14 05:57:38;;;;;;;2.85;1.85;;;;;;;16.52;52.03;97300.28;5002501;28;20046;-78
2021/06/14 06:00:07;;;;;;;5.70;2.80;;;;;;;16.56;51.41;97310.22;5001760;28;20061;-76
2021/06/14 06:02:35;;;;;;;4.55;2.20;;;;;;;16.58;51.41;97307.38;4999501;28;20057;-76
2021/06/14 06:05:03;;;;;;;5.93;2.38;;;;;;;16.60;50.57;97300.09;4996612;28;20062;-77
2021/06/14 06:07:31;;;;;;;6.05;2.72;;;;;;;16.61;50.94;97306.97;4997817;28;20046;-77
2021/06/14 06:09:59;;;;;;;4.60;2.70;;;;;;;16.62;51.26;97296.25;5000753;28;20046;-78
2021/06/14 06:12:27;;;;;;;5.47;2.30;;;;;;;16.66;50.54;97291.34;4999911;28;20053;-76
2021/06/14 06:14:55;;;;;;;6.43;2.55;;;;;;;16.67;50.95;97285.09;4999641;28;20620;-77
2021/06/14 06:17:22;;;;;;;9.10;2.25;;;;;;;16.70;50.48;97279.41;4999771;28;20054;-77
2021/06/14 06:19:49;;;;;;;7.07;2.10;;;;;;;16.74;51.19;97277.97;5000561;28;20069;-75
2021/06/14 06:22:17;;;;;;;6.13;2.40;;;;;;;16.80;51.12;97287.75;4998716;28;20057;-77
2021/06/14 06:24:45;;;;;;;3.83;2.20;;;;;;;16.86;50.35;97283.50;4999626;28;20066;-76
2021/06/14 06:27:13;;;;;;;6.30;2.80;;;;;;;16.92;50.90;97287.13;4998946;28;20053;-75
2021/06/14 06:29:41;;;;;;;8.60;2.70;;;;;;;16.98;50.65;97278.41;4998135;28;20050;-77
2021/06/14 06:32:10;;;;;;;2.92;1.85;;;;;;;17.04;50.70;97274.94;4999053;28;20511;-78
2021/06/14 06:34:38;;;;;;;3.33;1.92;;;;;;;17.12;50.28;97269.47;4997494;28;20059;-76
2021/06/14 06:37:05;;;;;;;4.63;2.10;;;;;;;17.18;50.20;97265.97;4998667;28;20094;-79
2021/06/14 06:39:33;;;;;;;6.22;2.42;;;;;;;17.26;50.43;97268.38;4997715;28;20504;-77
2021/06/14 06:42:01;;;;;;;4.63;2.72;;;;;;;17.33;50.46;97272.84;4999702;28;20050;-78
2021/06/14 06:44:30;;;;;;;2.90;1.60;;;;;;;17.39;49.73;97264.91;4998903;28;20126;-77
2021/06/14 06:47:00;;;;;;;6.68;2.75;;;;;;;17.46;49.96;97255.13;4999513;28;20051;-76
2021/06/14 06:49:28;;;;;;;4.25;2.30;;;;;;;17.53;49.47;97263.00;5000924;28;20065;-76
2021/06/14 06:51:55;;;;;;;2.03;1.70;;;;;;;17.58;49.56;97260.56;5001145;28;20460;-79
2021/06/14 06:54:23;;;;;;;6.72;2.33;;;;;;;17.63;49.41;97262.56;5000609;28;20070;-80
2021/06/14 06:56:52;;;;;;;8.15;2.30;;;;;;;17.69;49.51;97262.53;5000404;28;20046;-77
2021/06/14 06:59:20;;;;;;;4.25;2.10;;;;;;;17.75;49.59;97252.16;5000749;28;20052;-76
2021/06/14 07:01:50;;;;;;;7.35;2.33;;;;;;;17.83;49.41;97262.50;4999789;28;20515;-78
2021/06/14 07:04:17;;;;;;;3.85;2.22;;;;;;;17.89;49.16;97264.31;4998516;28;20050;-79
2021/06/14 07:06:45;;;;;;;5.15;2.13;;;;;;;17.94;49.01;97264.47;4998525;28;20717;-76
2021/06/14 07:09:13;;;;;;;2.63;2.00;;;;;;;18.00;49.11;97263.63;4999968;28;20061;-78
2021/06/14 07:11:41;;;;;;;3.47;1.92;;;;;;;18.07;49.10;97269.66;4999529;28;20505;-76
2021/06/14 07:14:09;;;;;;;3.72;2.20;;;;;;;18.14;48.90;97258.25;4996097;28;20057;-75
2021/06/14 07:16:38;;;;;;;3.42;1.90;;;;;;;18.20;48.60;97267.97;4996468;28;20614;-76
2021/06/14 07:19:07;;;;;;;7.63;2.47;;;;;;;18.26;48.44;97259.19;4987984;28;20057;-79
2021/06/14 07:21:35;;;;;;;5.40;2.10;;;;;;;18.32;47.51;97263.59;4980372;28;20062;-77
2021/06/14 07:24:03;;;;;;;3.33;2.10;;;;;;;18.38;47.49;97264.56;4996107;28;20105;-78
2021/06/14 07:26:30;;;;;;;4.43;2.08;;;;;;;18.43;47.54;97270.84;4999686;28;20050;-79
2021/06/14 07:28:59;;;;;;;4.07;2.08;;;;;;;18.52;47.48;97276.66;4999164;28;20050;-78
2021/06/14 07:31:27;;;;;;;3.03;2.20;;;;;;;18.57;47.06;97268.09;4999140;28;20046;-78
2021/06/14 07:33:57;;;;;;;3.38;2.25;;;;;;;18.63;46.64;97267.22;4999823;28;20054;-78
2021/06/14 07:36:27;;;;;;;8.65;3.03;;;;;;;18.69;46.64;97277.75;4999951;28;20054;-76
2021/06/14 07:38:55;;;;;;;5.35;2.42;;;;;;;18.74;46.97;97274.44;5030169;22;20459;-76
2021/06/14 07:41:23;;;;;;;5.47;2.10;;;;;;;18.82;46.77;97281.31;4994460;28;20161;-76
2021/06/14 07:43:51;;;;;;;5.07;3.00;;;;;;;18.87;46.76;97277.00;5012491;28;20050;-76
2021/06/14 07:46:18;;;;;;;10.05;2.35;;;;;;;18.94;46.84;97280.38;5012440;28;20503;-76
2021/06/14 07:48:46;;;;;;;3.72;2.45;;;;;;;19.01;46.46;97276.88;5012638;28;20105;-76
2021/06/14 07:51:14;;;;;;;4.55;2.63;;;;;;;19.07;46.23;97276.00;5014010;28;20058;-76
2021/06/14 07:53:43;;;;;;;5.00;2.05;;;;;;;19.13;46.14;97280.38;5014218;28;20065;-75
2021/06/14 07:56:10;;;;;;;7.30;2.30;;;;;;;19.19;46.26;97279.50;5013375;28;20050;-76
2021/06/14 07:58:38;;;;;;;4.32;1.90;;;;;;;19.26;45.59;97274.16;5013820;28;20050;-75
2021/06/14 08:01:05;;;;;;;3.58;2.20;;;;;;;19.35;45.98;97275.50;5013311;28;20465;-76
2021/06/14 08:03:33;;;;;;;2.92;2.65;;;;;;;19.43;45.25;97267.25;5012372;28;20058;-76
2021/06/14 08:06:04;;;;;;;6.05;2.35;;;;;;;19.50;45.03;97269.81;5011279;28;20049;-76
2021/06/14 08:08:32;;;;;;;3.50;2.13;;;;;;;19.55;45.16;97270.78;4992657;28;20046;-75
2021/06/14 08:11:01;;;;;;;3.55;2.22;;;;;;;19.62;44.78;97268.03;4992309;28;20497;-75
2021/06/14 08:13:29;;;;;;;4.80;2.20;;;;;;;19.66;44.52;97261.28;4991805;28;20565;-75
2021/06/14 08:16:08;;;;;;;3.85;2.00;;;;;;;19.73;44.22;97258.56;4988886;28;20046;-76
2021/06/14 08:18:41;;;;;;;3.38;2.28;;;;;;;19.80;43.99;97258.47;4992193;28;20057;-76
2021/06/14 08:21:23;;;;;;;;;;;;;;;19.90;44.33;97274.66;4993078;28;20057;-75
2021/06/14 08:26:37;;;;;;;5.03;2.10;;;;;;;20.07;44.02;97256.25;4981886;28;20113;-75
2021/06/14 08:29:05;;;;;;;4.57;2.10;;;;;;;20.14;43.21;97247.19;4973733;28;20114;-76
2021/06/14 08:31:34;;;;;;;7.30;2.67;;;;;;;20.24;43.86;97253.78;4985341;28;20050;-77
2021/06/14 08:34:03;;;;;;;7.18;3.10;;;;;;;20.33;43.31;97249.75;4997498;28;20050;-77
2021/06/14 08:36:31;;;;;;;8.25;2.45;;;;;;;20.41;43.86;97245.97;5000280;28;20046;-75
2021/06/14 08:38:59;;;;;;;3.03;1.90;;;;;;;20.49;42.86;97249.09;4997808;28;20046;-77
2021/06/14 08:41:27;;;;;;;4.45;2.22;;;;;;;20.56;43.11;97252.44;5000188;28;20057;-76
2021/06/14 08:43:59;;;;;;;4.57;1.88;;;;;;;20.63;42.50;97249.69;5016075;28;20046;-76
2021/06/14 08:46:27;;;;;;;;;;;;;;;20.72;42.64;97250.16;5017500;28;20061;-75
2021/06/14 08:48:56;;;;;;;4.60;1.90;;;;;;;20.80;41.70;97246.38;5017035;28;19925;-76
2021/06/14 08:51:24;;;;;;;5.50;1.80;;;;;;;20.88;41.87;97252.13;5016908;28;20562;-75
2021/06/14 08:53:52;;;;;;;4.72;2.20;;;;;;;20.97;41.61;97248.09;5017040;28;20048;-74
2021/06/14 08:56:21;;;;;;;3.88;1.80;;;;;;;21.07;41.63;97246.69;5018538;28;20112;-76
2021/06/14 08:58:49;;;;;;;5.32;2.67;;;;;;;21.16;42.02;97246.09;5001513;28;20046;-77
2021/06/14 09:01:18;;;;;;;3.03;1.98;;;;;;;21.24;41.37;97244.13;4997083;28;20097;-75
2021/06/14 09:03:46;;;;;;;4.00;1.90;;;;;;;21.30;40.72;97246.66;4996159;28;20082;-75
2021/06/14 09:06:13;;;;;;;4.03;2.47;;;;;;;21.35;40.70;97245.94;4995710;28;20529;-75
2021/06/14 09:08:41;;;;;;;2.40;1.80;;;;;;;21.39;40.49;97244.44;4995065;28;20055;-76
2021/06/14 09:11:11;;;;;;;6.93;2.10;;;;;;;21.43;40.52;97244.78;4995212;28;20050;-75
2021/06/14 09:13:39;;;;;;;6.85;2.80;;;;;;;21.47;40.97;97243.28;4994957;28;20141;-75
2021/06/14 09:16:08;;;;;;;5.70;2.10;;;;;;;21.55;40.60;97240.25;4995601;28;20810;-75
2021/06/14 09:18:39;;;;;;;4.78;2.30;;;;;;;21.63;40.02;97236.44;4995203;28;20047;-75
2021/06/14 09:21:08;;;;;;;5.13;2.13;;;;;;;21.71;40.54;97226.25;4995374;28;20058;-75
2021/06/14 09:23:46;;;;;;;3.28;2.00;;;;;;;21.81;39.54;97234.38;4995329;28;20057;-76
2021/06/14 09:26:29;;;;;;;5.28;1.98;;;;;;;21.86;38.71;97227.56;4995330;28;20058;-76
2021/06/14 09:28:58;;;;;;;;;;;;;;;21.91;39.51;97225.81;4994821;28;20069;-77
2021/06/14 09:31:29;;;;;;;3.95;1.90;;;;;;;21.98;38.60;97223.00;4995516;28;20016;-76
2021/06/14 09:33:58;;;;;;;5.83;2.20;;;;;;;22.07;39.24;97224.22;4995337;28;20093;-77
2021/06/14 09:36:26;;;;;;;4.30;1.90;;;;;;;22.12;38.93;97229.59;4996915;28;20524;-77
2021/06/14 09:38:54;;;;;;;4.35;2.00;;;;;;;22.18;39.02;97220.66;4996210;28;20057;-77
2021/06/14 09:41:21;;;;;;;4.07;1.80;;;;;;;22.24;38.34;97210.97;4996178;28;20057;-77
2021/06/14 09:43:52;;;;;;;4.07;1.77;;;;;;;22.29;38.34;97213.69;4995891;28;20475;-77
2021/06/14 09:46:25;;;;;;;3.20;2.20;;;;;;;22.35;37.94;97210.09;4994568;28;20451;-77
2021/06/14 09:48:53;;;;;;;5.72;1.73;;;;;;;22.43;38.18;97208.84;4996042;28;20054;-77
2021/06/14 09:51:22;;;;;;;2.88;1.67;;;;;;;22.49;37.41;97202.56;4995920;28;20054;-76
2021/06/14 09:53:52;;;;;;;3.63;1.60;;;;;;;22.58;37.96;97203.75;4995381;28;20070;-75
2021/06/14 09:56:22;;;;;;;2.13;1.60;;;;;;;22.67;37.46;97200.69;4995884;28;20093;-76
2021/06/14 09:58:51;;;;;;;3.63;1.73;;;;;;;22.75;38.73;97209.06;5007948;28;20100;-77
2021/06/14 10:01:27;;;;;;;7.82;2.20;;;;;;;22.83;39.09;97189.25;4996760;28;20061;-76
2021/06/14 10:03:56;;;;;;;3.15;2.47;;;;;;;22.89;38.07;97196.22;4993957;28;20065;-76
2021/06/14 10:06:32;;;;;;;5.70;2.05;;;;;;;22.94;38.72;97198.16;4994237;28;20140;-76
2021/06/14 10:09:00;;;;;;;6.30;1.83;;;;;;;22.97;39.04;97193.13;4993366;28;20061;-77
2021/06/14 10:11:36;;;;;;;6.10;2.45;;;;;;;23.04;39.16;97203.63;4994187;28;20109;-77
2021/06/14 10:14:12;;;;;;;4.63;1.90;;;;;;;23.12;38.59;97199.75;4994314;28;20051;-75
2021/06/14 10:16:40;;;;;;;4.10;1.90;;;;;;;23.17;38.29;97207.78;5000960;28;20061;-75
2021/06/14 10:19:10;;;;;;;2.03;1.50;;;;;;;23.22;37.78;97202.50;4994612;28;20129;-74
2021/06/14 10:21:40;;;;;;;3.72;1.70;;;;;;;23.27;36.96;97196.47;4994207;28;20078;-75
2021/06/14 10:24:10;;;;;;;3.60;1.90;;;;;;;23.34;37.40;97187.22;4994009;28;20046;-75
2021/06/14 10:26:40;;;;;;;3.47;1.60;;;;;;;23.42;36.85;97192.13;4994387;28;20436;-75
2021/06/14 10:29:12;;;;;;;4.15;1.75;;;;;;;23.47;37.32;97185.25;4994157;28;20520;-75
2021/06/14 10:31:41;;;;;;;3.20;1.63;;;;;;;23.51;36.61;97170.38;4993390;28;20500;-75
2021/06/14 10:34:10;;;;;;;3.58;1.45;;;;;;;23.55;37.61;97176.78;4993341;28;20051;-76
2021/06/14 10:36:43;;;;;;;1.75;1.63;;;;;;;23.61;37.17;97170.44;4994009;28;20046;-75
2021/06/14 10:39:13;;;;;;;3.28;1.90;;;;;;;23.64;37.61;97170.78;4993996;28;20046;-76
2021/06/14 10:41:43;;;;;;;4.60;1.83;;;;;;;23.66;38.20;97162.53;4994756;28;20066;-78
2021/06/14 10:44:11;;;;;;;3.53;2.00;;;;;;;23.70;38.45;97160.94;4994482;28;20061;-77
2021/06/14 10:46:44;;;;;;;3.08;1.80;;;;;;;23.75;37.64;97165.53;4994296;28;20423;-78
2021/06/14 10:49:14;;;;;;;5.32;2.13;;;;;;;23.75;37.65;97160.22;5008024;28;20504;-78
2021/06/14 10:51:44;;;;;;;2.92;1.80;;;;;;;23.72;37.32;97150.06;5014117;28;20050;-78
2021/06/14 10:54:15;;;;;;;3.83;1.92;;;;;;;23.75;39.26;97145.06;5007458;28;20054;-78
2021/06/14 10:56:43;;;;;;;3.17;1.40;;;;;;;23.81;38.07;97138.72;4993900;28;20058;-75
2021/06/14 10:59:13;;;;;;;3.88;2.05;;;;;;;23.85;37.64;97137.16;4992865;28;20620;-75
2021/06/14 11:01:44;;;;;;;4.20;2.00;;;;;;;23.91;37.66;97131.88;4993814;28;20500;-75
2021/06/14 11:04:24;;;;;;;3.08;1.83;;;;;;;23.99;37.05;97134.09;4992723;28;20623;-74
2021/06/14 11:06:55;;;;;;;9.90;2.35;;;;;;;24.05;35.76;97135.69;4993268;28;20093;-74
2021/06/14 11:09:23;;;;;;;3.00;1.80;;;;;;;24.09;37.25;97133.34;4993210;28;20443;-75
2021/06/14 11:11:54;;;;;;;2.78;1.48;;;;;;;24.18;36.84;97127.28;4993493;28;20057;-74
2021/06/14 11:14:33;;;;;;;5.28;2.15;;;;;;;24.24;35.91;97122.78;4973901;28;20100;-73
2021/06/14 11:17:13;;;;;;;4.82;1.80;;;;;;;24.29;35.43;97119.34;4974549;28;20501;-75
2021/06/14 11:19:42;;;;;;;3.10;1.80;;;;;;;24.32;35.59;97122.31;4979629;28;20078;-75
2021/06/14 11:22:11;;;;;;;5.90;2.05;;;;;;;24.39;35.11;97114.09;5007696;28;20050;-76
2021/06/14 11:24:41;;;;;;;3.30;1.20;;;;;;;24.45;34.28;97102.41;5012874;28;20077;-75
2021/06/14 11:27:10;;;;;;;1.70;1.60;;;;;;;24.49;34.33;97098.19;5012993;28;20043;-76
2021/06/14 11:29:46;;;;;;;3.28;1.70;;;;;;;24.52;34.72;97094.97;5000191;28;20116;-75
2021/06/14 11:32:19;;;;;;;1.75;1.20;;;;;;;24.54;33.63;97092.88;4995030;28;20062;-76
2021/06/14 11:34:51;;;;;;;2.80;1.73;;;;;;;24.51;33.32;97093.41;4993953;28;20144;-74
2021/06/14 11:37:20;;;;;;;1.95;1.48;;;;;;;24.47;33.08;97093.06;4996134;28;20057;-74
2021/06/14 11:39:59;;;;;;;5.78;1.73;;;;;;;24.48;34.21;97083.22;5013996;28;20057;-76
2021/06/14 11:42:28;;;;;;;4.43;1.90;;;;;;;24.50;35.07;97081.09;5012309;28;20065;-74
2021/06/14 11:44:58;;;;;;;3.60;1.60;;;;;;;24.55;35.09;97078.44;4993478;28;20066;-76
2021/06/14 11:47:28;;;;;;;2.35;1.50;;;;;;;24.60;33.79;97075.84;5003163;28;20053;-75
2021/06/14 11:49:59;;;;;;;2.53;1.20;;;;;;;24.64;32.94;97071.59;5013073;28;20042;-75